Time;durP1;ratioP1;P1;durP2;ratioP2;P2;SDS_P1;SDS_P2;PMS_P1;PMS_P2;Temp;Humidity;BMP_temperature;BMP_pressure;BME280_temperature;BME280_humidity;BME280_pressure;Samples;Min_cycle;Max_cycle;Signal;HPM_P1;HPM_P2
2022/11/28 00:00:10;;;;;;;2.85;2.00;;;;;;;18.18;48.28;100970.09;5023430;28;20041;-59
2022/11/28 00:02:35;;;;;;;3.50;2.10;;;;;;;18.17;48.33;100948.69;5023431;28;20038;-59
2022/11/28 00:05:00;;;;;;;1.80;1.70;;;;;;;18.15;48.42;100953.41;5023433;28;20124;-59
2022/11/28 00:07:26;;;;;;;2.47;2.15;;;;;;;18.16;48.42;100952.41;5022829;28;20036;-59
2022/11/28 00:09:51;;;;;;;1.95;1.73;;;;;;;18.16;48.74;100944.31;5023196;28;20040;-59
2022/11/28 00:12:17;;;;;;;2.30;1.95;;;;;;;18.14;48.58;100941.81;5023561;28;20030;-59
2022/11/28 00:14:42;;;;;;;2.70;2.03;;;;;;;18.14;48.40;100939.13;5023200;28;20052;-59
2022/11/28 00:17:07;;;;;;;2.83;2.40;;;;;;;18.13;48.19;100940.09;5023052;28;20057;-59
2022/11/28 00:19:33;;;;;;;2.85;2.08;;;;;;;18.10;48.43;100934.22;5023089;28;20025;-59
2022/11/28 00:21:58;;;;;;;2.97;1.92;;;;;;;18.13;48.71;100939.25;5024999;28;20038;-58
2022/11/28 00:24:25;;;;;;;2.22;1.88;;;;;;;18.13;48.42;100928.50;5027182;28;20026;-59
2022/11/28 00:26:50;;;;;;;2.03;1.77;;;;;;;18.11;48.71;100928.66;5026784;28;20058;-59
2022/11/28 00:29:15;;;;;;;3.10;2.00;;;;;;;18.10;48.37;100921.63;5027015;28;20033;-59
2022/11/28 00:31:41;;;;;;;2.55;1.98;;;;;;;18.10;48.59;100916.22;5027015;28;20486;-60
2022/11/28 00:34:08;;;;;;;3.00;1.77;;;;;;;18.10;48.45;100923.47;5026965;28;20169;-58
2022/11/28 00:36:34;;;;;;;2.47;2.08;;;;;;;18.09;48.67;100906.44;5008838;28;20121;-59
2022/11/28 00:38:59;;;;;;;1.65;1.55;;;;;;;18.08;48.67;100910.16;5027226;28;20405;-59
2022/11/28 00:41:27;;;;;;;2.17;1.95;;;;;;;17.97;48.45;100891.63;5026714;28;20049;-59
2022/11/28 00:43:53;;;;;;;1.88;1.70;;;;;;;18.08;48.71;100907.47;5027105;28;20054;-59
2022/11/28 00:46:20;;;;;;;2.30;1.80;;;;;;;18.08;48.61;100903.94;5008849;28;20060;-55
2022/11/28 00:48:45;;;;;;;2.15;1.67;;;;;;;18.06;48.73;100906.78;5026522;28;20081;-59
2022/11/28 00:51:17;;;;;;;3.13;2.10;;;;;;;18.06;48.68;100914.03;5026329;28;20026;-58
2022/11/28 00:53:43;;;;;;;2.00;1.77;;;;;;;18.06;48.67;100903.28;5026312;28;20089;-59
2022/11/28 00:56:10;;;;;;;2.85;2.13;;;;;;;17.96;48.56;100888.06;5026337;28;20049;-59
2022/11/28 00:58:36;;;;;;;1.83;1.70;;;;;;;18.05;48.35;100906.94;5008823;28;20056;-59
2022/11/28 01:01:20;;;;;;;2.00;1.80;;;;;;;18.03;48.35;100899.03;5009156;28;20022;-61
2022/11/28 01:03:46;;;;;;;2.75;2.00;;;;;;;17.66;48.33;100837.50;5026027;28;20065;-58
2022/11/28 01:06:12;;;;;;;2.42;1.83;;;;;;;18.03;48.44;100893.66;5026317;28;20032;-58
2022/11/28 01:08:37;;;;;;;2.78;2.00;;;;;;;18.01;48.51;100889.44;5026001;28;20108;-59
2022/11/28 01:11:04;;;;;;;2.45;1.77;;;;;;;18.02;48.52;100886.59;5026075;28;20442;-59
2022/11/28 01:13:29;;;;;;;2.28;1.98;;;;;;;17.99;48.61;100885.06;5026371;28;20038;-59
2022/11/28 01:15:54;;;;;;;1.70;1.60;;;;;;;18.01;48.65;100882.25;5025919;28;20052;-59
2022/11/28 01:18:20;;;;;;;2.22;2.03;;;;;;;18.01;48.19;100892.13;5026233;28;20026;-58
2022/11/28 01:20:45;;;;;;;3.20;2.08;;;;;;;18.01;48.56;100878.69;5008617;28;20089;-59
2022/11/28 01:23:10;;;;;;;2.42;1.80;;;;;;;17.99;48.57;100885.06;5025725;28;20026;-59
2022/11/28 01:25:35;;;;;;;2.47;2.03;;;;;;;17.99;48.33;100870.78;5025535;28;20654;-59
2022/11/28 01:28:01;;;;;;;2.40;2.00;;;;;;;17.99;48.41;100866.25;5025967;28;20030;-58
2022/11/28 01:30:26;;;;;;;2.38;1.90;;;;;;;17.87;48.42;100853.25;5026076;28;20041;-58
2022/11/28 01:32:51;;;;;;;2.60;1.90;;;;;;;17.98;48.33;100879.88;5024261;28;20030;-59
2022/11/28 01:35:17;;;;;;;2.75;1.90;;;;;;;17.92;48.44;100851.75;5025774;28;20029;-59
2022/11/28 01:37:42;;;;;;;2.08;1.88;;;;;;;17.97;48.28;100870.97;5025340;28;20029;-59
2022/11/28 01:40:10;;;;;;;2.75;2.15;;;;;;;17.97;48.29;100862.03;5026198;28;20033;-59
2022/11/28 01:42:35;;;;;;;2.38;1.80;;;;;;;17.97;48.36;100867.44;5025418;28;20026;-59
2022/11/28 01:45:07;;;;;;;2.88;2.20;;;;;;;17.93;48.34;100844.56;5025611;28;20037;-59
2022/11/28 01:47:33;;;;;;;2.22;1.77;;;;;;;17.96;48.41;100853.09;5025623;28;20022;-59
2022/11/28 01:49:59;;;;;;;2.25;1.95;;;;;;;17.95;48.50;100853.28;5007680;28;20045;-59
2022/11/28 01:52:24;;;;;;;2.00;1.77;;;;;;;17.94;48.22;100855.13;5007539;28;20073;-59
2022/11/28 01:54:53;;;;;;;2.65;2.00;;;;;;;17.86;48.16;100841.66;5007965;28;20030;-59
2022/11/28 01:57:21;;;;;;;2.53;1.80;;;;;;;17.94;48.20;100848.91;5025445;28;20033;-61
2022/11/28 01:59:53;;;;;;;2.10;1.70;;;;;;;17.94;48.17;100848.91;5025073;28;20030;-58
2022/11/28 02:02:38;;;;;;;2.78;1.90;;;;;;;17.93;48.27;100856.16;5008128;28;20034;-59
2022/11/28 02:05:05;;;;;;;2.60;1.70;;;;;;;17.92;48.32;100849.06;5016525;28;20026;-59
2022/11/28 02:07:30;;;;;;;1.98;1.63;;;;;;;17.92;48.28;100849.06;5024951;28;20041;-59
2022/11/28 02:09:55;;;;;;;2.28;2.05;;;;;;;17.89;48.21;100841.34;5025193;28;20030;-59
2022/11/28 02:13:08;;;;;;;3.33;1.90;;;;;;;17.91;48.28;100836.63;5007286;28;20029;-59
2022/11/28 02:15:45;;;;;;;2.50;2.03;;;;;;;17.90;48.24;100837.63;5019844;28;20048;-59
2022/11/28 02:18:33;;;;;;;2.92;2.08;;;;;;;17.90;48.03;100836.78;5025049;28;20501;-59
2022/11/28 02:21:07;;;;;;;4.22;1.85;;;;;;;17.89;48.47;100840.50;5024877;28;20042;-59
2022/11/28 02:24:10;;;;;;;2.65;1.90;;;;;;;17.89;48.32;100827.06;5024791;28;20033;-59
2022/11/28 02:26:47;;;;;;;2.00;1.80;;;;;;;17.87;48.33;100824.50;5019428;28;20110;-59
2022/11/28 02:29:33;;;;;;;2.35;1.92;;;;;;;17.87;48.54;100827.19;5024606;28;20088;-59
2022/11/28 02:32:15;;;;;;;2.25;2.05;;;;;;;17.87;48.29;100831.75;5007356;28;20042;-59
2022/11/28 02:35:01;;;;;;;2.45;1.80;;;;;;;17.86;48.21;100820.13;4997211;28;20090;-59
2022/11/28 02:38:02;;;;;;;2.53;1.80;;;;;;;17.86;48.25;100830.06;5006747;28;20101;-59
2022/11/28 02:40:52;;;;;;;2.50;2.10;;;;;;;17.85;48.41;100828.38;5007007;28;20064;-59
2022/11/28 02:43:32;;;;;;;2.58;1.90;;;;;;;17.84;48.40;100819.47;5024002;28;20404;-59
2022/11/28 02:46:31;;;;;;;3.15;1.95;;;;;;;17.84;48.29;100819.47;5006478;28;20094;-59
2022/11/28 02:49:00;;;;;;;2.17;1.70;;;;;;;17.84;48.37;100826.69;4986482;28;20491;-59
2022/11/28 02:51:42;;;;;;;2.17;1.98;;;;;;;17.84;48.17;100826.69;5006092;28;20041;-59
2022/11/28 02:54:10;;;;;;;2.08;1.88;;;;;;;17.83;48.42;100828.53;5024356;28;20038;-59
2022/11/28 02:56:36;;;;;;;2.80;2.10;;;;;;;17.82;48.49;100826.00;5024292;28;20045;-59
2022/11/28 02:59:02;;;;;;;2.75;2.15;;;;;;;17.83;48.22;100825.84;5006810;28;20037;-59
2022/11/28 03:01:36;;;;;;;2.83;2.00;;;;;;;17.79;48.32;100819.09;5024079;28;20034;-60
2022/11/28 03:04:38;;;;;;;2.13;1.75;;;;;;;17.81;48.22;100819.78;5006761;28;20030;-58
2022/11/28 03:07:15;;;;;;;1.70;1.60;;;;;;;17.81;48.30;100825.19;5017690;28;20093;-61
2022/11/28 03:09:55;;;;;;;1.92;1.70;;;;;;;17.81;48.49;100816.28;5023921;28;20099;-59
2022/11/28 03:12:30;;;;;;;2.58;1.90;;;;;;;17.80;48.18;100822.63;5006433;28;20032;-59
2022/11/28 03:14:58;;;;;;;2.35;2.03;;;;;;;17.80;48.14;100822.63;5016063;28;20052;-60
2022/11/28 03:17:26;;;;;;;2.42;1.83;;;;;;;17.80;48.23;100823.50;5023952;28;20029;-60
2022/11/28 03:20:35;;;;;;;3.55;1.90;;;;;;;17.80;48.45;100822.63;5005739;28;20068;-59
2022/11/28 03:23:20;;;;;;;2.30;1.95;;;;;;;17.79;48.24;100829.84;5015763;28;20121;-59
2022/11/28 03:25:59;;;;;;;2.17;1.85;;;;;;;17.79;48.26;100829.03;5005562;28;20042;-59
2022/11/28 03:28:30;;;;;;;2.03;1.83;;;;;;;17.79;48.34;100823.63;5023964;28;20036;-59
2022/11/28 03:30:57;;;;;;;2.97;1.92;;;;;;;17.77;48.18;100826.50;5023555;28;20040;-58
2022/11/28 03:33:24;;;;;;;2.50;2.22;;;;;;;17.69;48.32;100808.47;5014213;28;20061;-59
2022/11/28 03:35:57;;;;;;;2.08;1.85;;;;;;;17.75;48.15;100820.44;5005540;28;20103;-59
2022/11/28 03:38:28;;;;;;;2.03;1.77;;;;;;;17.77;48.31;100817.59;5005791;28;20025;-59
2022/11/28 03:40:58;;;;;;;1.95;1.75;;;;;;;17.76;48.29;100816.75;5005984;28;20041;-59
2022/11/28 03:43:29;;;;;;;1.70;1.60;;;;;;;17.76;48.21;100814.06;5005918;28;20378;-59
2022/11/28 03:45:57;;;;;;;2.42;2.00;;;;;;;17.75;48.12;100809.69;5005475;28;20092;-59
2022/11/28 03:48:26;;;;;;;2.10;1.55;;;;;;;17.76;48.14;100813.22;5005920;28;20037;-59
2022/11/28 03:51:16;;;;;;;2.05;1.80;;;;;;;17.76;48.20;100813.22;5005328;28;20101;-59
2022/11/28 03:53:58;;;;;;;2.47;2.08;;;;;;;17.65;48.21;100801.72;4994145;28;20034;-59
2022/11/28 03:56:26;;;;;;;2.88;2.15;;;;;;;17.74;48.30;100816.91;5015878;28;20056;-59
2022/11/28 03:59:01;;;;;;;2.60;1.80;;;;;;;17.74;48.09;100816.06;5023494;28;20017;-59
2022/11/28 04:01:38;;;;;;;1.70;1.60;;;;;;;17.74;48.17;100822.28;5023341;28;20028;-59
2022/11/28 04:04:12;;;;;;;2.47;1.83;;;;;;;17.73;48.37;100825.13;5023236;28;20119;-60
2022/11/28 04:07:01;;;;;;;2.40;1.80;;;;;;;17.73;48.34;100817.03;5005155;28;20041;-59
2022/11/28 04:09:48;;;;;;;1.92;1.73;;;;;;;17.74;48.23;100818.75;5005766;28;20093;-59
2022/11/28 04:12:20;;;;;;;2.15;1.85;;;;;;;17.72;48.22;100823.44;5022959;28;20025;-60
2022/11/28 04:14:48;;;;;;;2.17;1.83;;;;;;;17.72;48.29;100823.44;5005743;28;20022;-60
2022/11/28 04:17:32;;;;;;;2.42;2.17;;;;;;;17.71;48.05;100821.72;5005395;28;20030;-60
2022/11/28 04:20:04;;;;;;;1.90;1.73;;;;;;;17.60;48.04;100812.13;5022741;28;20026;-59
2022/11/28 04:22:37;;;;;;;2.10;1.90;;;;;;;17.67;48.29;100820.38;5015385;28;20026;-60
2022/11/28 04:25:13;;;;;;;1.70;1.52;;;;;;;17.70;48.16;100820.88;5005592;28;20029;-60
2022/11/28 04:27:43;;;;;;;2.30;2.10;;;;;;;17.62;48.21;100803.88;5005670;28;20046;-60
2022/11/28 04:30:10;;;;;;;1.85;1.70;;;;;;;17.70;47.98;100818.19;4986007;28;20045;-60
2022/11/28 04:32:38;;;;;;;2.05;1.77;;;;;;;17.70;48.22;100814.66;5005492;28;20017;-60
2022/11/28 04:35:09;;;;;;;2.45;2.15;;;;;;;17.70;47.98;100814.66;5022855;28;20087;-60
2022/11/28 04:37:36;;;;;;;2.25;2.05;;;;;;;17.70;47.98;100823.56;5005109;28;20103;-60
2022/11/28 04:40:02;;;;;;;2.95;1.90;;;;;;;17.71;48.24;100816.34;5005321;28;20036;-59
2022/11/28 04:42:44;;;;;;;1.70;1.60;;;;;;;17.70;48.08;100822.75;5022755;28;20022;-59
2022/11/28 04:45:35;;;;;;;1.73;1.63;;;;;;;17.71;47.92;100821.72;5022820;28;20026;-60
2022/11/28 04:48:00;;;;;;;2.78;2.00;;;;;;;17.70;48.11;100812.81;5012691;28;20052;-60
2022/11/28 04:50:30;;;;;;;2.47;1.90;;;;;;;17.68;48.14;100814.00;5004873;28;20033;-59
2022/11/28 04:53:04;;;;;;;2.42;1.98;;;;;;;17.70;48.29;100822.75;5021095;28;20117;-59
2022/11/28 04:55:36;;;;;;;2.22;1.80;;;;;;;17.69;48.03;100821.06;5022852;28;20040;-60
2022/11/28 04:58:08;;;;;;;3.05;1.92;;;;;;;17.68;48.27;100819.38;5004599;28;20048;-59
2022/11/28 05:00:35;;;;;;;2.80;1.80;;;;;;;17.70;48.06;100822.75;5003794;28;20133;-58
2022/11/28 05:03:01;;;;;;;2.42;1.80;;;;;;;17.69;48.07;100818.38;5022448;28;20045;-59
2022/11/28 05:05:28;;;;;;;1.80;1.70;;;;;;;17.71;48.14;100821.72;5004458;28;20069;-59
2022/11/28 05:07:53;;;;;;;1.50;1.40;;;;;;;17.67;48.39;100820.38;5021155;28;20117;-60
2022/11/28 05:10:18;;;;;;;2.20;1.67;;;;;;;17.65;48.15;100808.94;5026682;28;20092;-60
2022/11/28 05:12:44;;;;;;;2.15;1.70;;;;;;;17.70;48.41;100828.97;5025803;28;20032;-60
2022/11/28 05:15:09;;;;;;;2.10;1.90;;;;;;;17.72;48.56;100826.97;5025722;28;20017;-60
2022/11/28 05:17:35;;;;;;;1.60;1.50;;;;;;;17.74;48.34;100830.34;5025779;28;20088;-60
2022/11/28 05:20:00;;;;;;;2.33;2.03;;;;;;;17.75;48.32;100831.19;5025980;28;20029;-57
2022/11/28 05:22:26;;;;;;;2.10;2.00;;;;;;;17.71;48.40;100827.97;5025450;28;20037;-60
2022/11/28 05:24:51;;;;;;;2.00;1.80;;;;;;;17.77;48.14;100836.41;5025595;28;20979;-60
2022/11/28 05:27:16;;;;;;;1.90;1.50;;;;;;;17.77;48.18;100831.88;5025405;28;20046;-58
2022/11/28 05:29:43;;;;;;;3.03;1.98;;;;;;;17.78;48.45;100827.34;5023122;28;20030;-60
2022/11/28 05:32:09;;;;;;;4.25;1.90;;;;;;;17.76;48.40;100835.59;5017641;28;20025;-60
2022/11/28 05:34:35;;;;;;;2.58;1.75;;;;;;;17.79;48.49;100837.09;5025651;28;20125;-61
2022/11/28 05:37:00;;;;;;;3.28;1.92;;;;;;;17.79;48.57;100832.53;5025348;28;20026;-60
2022/11/28 05:39:25;;;;;;;3.90;2.20;;;;;;;17.80;48.48;100839.63;5019833;28;20087;-59
2022/11/28 05:41:51;;;;;;;2.05;1.65;;;;;;;17.82;48.55;100834.91;5025425;28;20029;-60
2022/11/28 05:44:16;;;;;;;2.13;1.65;;;;;;;17.76;48.78;100824.00;5024915;28;20048;-60
2022/11/28 05:46:41;;;;;;;1.75;1.63;;;;;;;17.83;48.80;100831.22;5025056;28;20022;-61
2022/11/28 05:49:07;;;;;;;2.05;1.85;;;;;;;17.85;48.65;100839.16;5025261;28;20026;-60
2022/11/28 05:51:32;;;;;;;2.55;1.90;;;;;;;17.86;48.55;100843.50;5025003;28;20091;-59
2022/11/28 05:53:58;;;;;;;1.90;1.70;;;;;;;17.87;48.84;100847.88;5024644;28;20815;-60
2022/11/28 05:56:23;;;;;;;2.17;1.85;;;;;;;17.88;48.86;100854.94;5025211;28;20041;-60
2022/11/28 05:58:49;;;;;;;4.22;1.80;;;;;;;17.79;48.72;100821.78;5025065;28;20114;-60
2022/11/28 06:01:16;;;;;;;1.95;1.70;;;;;;;17.90;48.85;100847.56;5017076;28;20038;-60
2022/11/28 06:03:42;;;;;;;2.65;1.80;;;;;;;17.90;49.06;100848.41;5019244;28;20041;-61
2022/11/28 06:06:15;;;;;;;2.30;2.00;;;;;;;17.89;48.77;100846.72;5017000;28;20065;-62
2022/11/28 06:08:41;;;;;;;1.83;1.63;;;;;;;17.91;49.11;100850.06;5014172;28;20117;-61
2022/11/28 06:11:07;;;;;;;1.65;1.40;;;;;;;17.91;49.08;100851.94;5019751;28;20038;-61
2022/11/28 06:13:33;;;;;;;2.20;1.80;;;;;;;17.89;49.15;100844.03;5021754;28;20057;-60
2022/11/28 06:15:58;;;;;;;2.67;1.55;;;;;;;17.92;49.08;100850.91;5019977;28;20096;-60
2022/11/28 06:18:23;;;;;;;1.50;1.40;;;;;;;17.92;49.15;100850.91;5014687;28;20080;-60
2022/11/28 06:20:49;;;;;;;3.45;1.75;;;;;;;17.92;48.84;100857.13;5014221;28;20033;-60
2022/11/28 06:23:14;;;;;;;1.63;1.52;;;;;;;17.93;48.86;100858.84;5015651;28;20112;-60
2022/11/28 06:25:39;;;;;;;1.85;1.38;;;;;;;17.95;48.89;100864.03;5013310;28;20043;-60
2022/11/28 06:28:04;;;;;;;2.28;1.50;;;;;;;17.94;49.17;100857.81;5015137;28;20542;-60
2022/11/28 06:30:30;;;;;;;2.10;1.60;;;;;;;17.96;49.04;100860.34;5014324;28;20034;-61
2022/11/28 06:32:55;;;;;;;2.15;1.40;;;;;;;17.95;49.02;100855.97;5018364;28;20018;-61
2022/11/28 06:35:20;;;;;;;1.55;1.45;;;;;;;17.96;49.00;100860.34;5014645;28;20022;-61
2022/11/28 06:37:45;;;;;;;2.03;1.60;;;;;;;17.96;49.18;100863.03;5014205;28;20383;-61
2022/11/28 06:40:11;;;;;;;1.65;1.52;;;;;;;17.74;49.23;100826.81;5015483;28;20147;-61
2022/11/28 06:42:36;;;;;;;2.97;1.63;;;;;;;17.89;48.86;100844.03;5014249;28;20072;-61
2022/11/28 06:45:03;;;;;;;2.22;1.65;;;;;;;17.98;48.94;100867.25;5015101;28;20058;-61
2022/11/28 06:47:28;;;;;;;2.67;1.60;;;;;;;17.99;49.23;100862.72;5009874;28;20094;-61
2022/11/28 06:49:53;;;;;;;2.22;1.40;;;;;;;18.01;49.09;100865.22;5011831;28;20042;-61
2022/11/28 06:52:19;;;;;;;3.15;1.40;;;;;;;18.01;49.02;100860.72;5013787;28;20033;-61
2022/11/28 06:54:44;;;;;;;2.15;1.60;;;;;;;17.94;49.14;100849.75;5015677;28;20023;-61
2022/11/28 06:57:09;;;;;;;2.75;1.40;;;;;;;18.03;49.15;100865.91;5013894;28;20025;-61
2022/11/28 06:59:34;;;;;;;2.05;1.80;;;;;;;18.04;49.04;100863.06;5017896;28;20088;-61
2022/11/28 07:02:02;;;;;;;1.60;1.50;;;;;;;18.03;48.90;100866.75;5024371;28;20097;-60
2022/11/28 07:04:27;;;;;;;1.70;1.60;;;;;;;18.04;48.99;100872.97;5021974;28;20048;-60
2022/11/28 07:06:52;;;;;;;1.85;1.63;;;;;;;18.01;48.95;100863.41;5023907;28;20049;-57
2022/11/28 07:09:17;;;;;;;2.72;1.35;;;;;;;18.05;49.17;100866.59;5024551;28;20030;-62
2022/11/28 07:11:43;;;;;;;4.45;1.70;;;;;;;18.08;48.87;100869.78;5023716;28;20040;-61
2022/11/28 07:14:09;;;;;;;3.15;1.65;;;;;;;18.10;49.11;100867.81;5024175;28;20029;-60
2022/11/28 07:16:35;;;;;;;1.73;1.38;;;;;;;18.11;48.92;100874.00;5022848;28;20056;-61
2022/11/28 07:19:00;;;;;;;2.05;1.30;;;;;;;18.07;48.86;100867.28;5023752;28;20030;-60
2022/11/28 07:21:26;;;;;;;1.75;1.42;;;;;;;18.13;48.74;100882.75;5005576;28;20022;-63
2022/11/28 07:23:52;;;;;;;1.77;1.35;;;;;;;18.14;48.78;100879.09;5022841;28;20029;-61
2022/11/28 07:26:20;;;;;;;2.63;1.30;;;;;;;18.14;48.90;100885.31;5022994;28;20050;-61
2022/11/28 07:28:46;;;;;;;3.38;1.42;;;;;;;18.16;48.99;100890.50;5022919;28;20083;-62
2022/11/28 07:31:14;;;;;;;3.95;1.67;;;;;;;18.16;49.02;100885.97;5022361;28;20054;-62
2022/11/28 07:33:40;;;;;;;2.38;1.50;;;;;;;18.16;48.82;100890.50;5004637;28;20030;-61
2022/11/28 07:36:10;;;;;;;1.48;1.30;;;;;;;18.15;48.90;100886.97;5023138;28;20036;-62
2022/11/28 07:38:35;;;;;;;2.03;1.65;;;;;;;18.13;48.87;100893.50;5022763;28;20026;-62
2022/11/28 07:41:05;;;;;;;3.05;1.35;;;;;;;18.10;48.71;100880.41;5018268;28;20045;-62
2022/11/28 07:43:30;;;;;;;1.70;1.38;;;;;;;18.04;48.71;100864.91;5023249;28;20033;-62
2022/11/28 07:45:55;;;;;;;1.63;1.20;;;;;;;18.17;48.49;100890.34;5022537;28;20029;-62
2022/11/28 07:48:21;;;;;;;1.77;1.55;;;;;;;18.18;48.67;100892.03;5023171;28;20084;-62
2022/11/28 07:50:46;;;;;;;1.75;1.27;;;;;;;18.18;48.80;100897.41;5022921;28;20034;-62
2022/11/28 07:53:11;;;;;;;1.60;1.40;;;;;;;18.20;48.70;100914.22;5019815;28;20501;-63
2022/11/28 07:55:36;;;;;;;1.90;1.50;;;;;;;18.21;48.78;100907.00;5022764;28;20030;-62
2022/11/28 07:58:03;;;;;;;3.03;1.50;;;;;;;18.20;48.81;100906.16;5022843;28;20018;-63
2022/11/28 08:00:28;;;;;;;3.47;1.60;;;;;;;18.21;48.24;100899.75;5022320;28;20051;-60
2022/11/28 08:02:53;;;;;;;1.27;1.17;;;;;;;18.15;48.53;100894.22;5022962;28;20034;-61
2022/11/28 08:05:18;;;;;;;1.90;1.40;;;;;;;18.23;48.52;100902.31;5022676;28;20049;-61
2022/11/28 08:07:44;;;;;;;1.27;1.15;;;;;;;18.23;48.61;100900.47;5022215;28;20029;-60
2022/11/28 08:10:09;;;;;;;1.55;1.42;;;;;;;18.23;48.64;100905.84;5023027;28;20964;-60
2022/11/28 08:12:34;;;;;;;1.73;1.20;;;;;;;18.24;48.72;100904.00;5022670;28;20056;-60
2022/11/28 08:15:00;;;;;;;1.45;1.35;;;;;;;18.24;48.75;100899.44;5022471;28;20042;-60
2022/11/28 08:17:25;;;;;;;1.35;1.15;;;;;;;18.17;48.55;100886.81;5023055;28;20036;-61
2022/11/28 08:19:50;;;;;;;5.85;1.45;;;;;;;18.24;48.83;100910.22;5023059;28;20045;-62
2022/11/28 08:22:15;;;;;;;1.98;1.15;;;;;;;18.26;48.64;100911.88;5023079;28;20108;-60
2022/11/28 08:24:41;;;;;;;5.22;1.23;;;;;;;18.27;48.77;100913.59;5022075;28;20025;-60
2022/11/28 08:27:06;;;;;;;4.03;1.48;;;;;;;18.21;48.52;100910.53;5013424;28;20069;-60
2022/11/28 08:29:31;;;;;;;2.65;1.58;;;;;;;18.26;48.55;100912.72;5027189;28;20061;-61
2022/11/28 08:31:56;;;;;;;2.25;1.40;;;;;;;18.26;48.74;100917.25;5024676;28;20072;-60
2022/11/28 08:34:22;;;;;;;2.90;1.83;;;;;;;18.26;48.92;100915.41;5022462;28;20033;-61
2022/11/28 08:36:47;;;;;;;1.58;1.33;;;;;;;18.27;48.79;100914.44;5022519;28;20034;-60
2022/11/28 08:39:13;;;;;;;2.13;1.17;;;;;;;18.02;48.51;100883.06;5021791;28;20022;-61
2022/11/28 08:41:38;;;;;;;2.67;1.38;;;;;;;18.28;48.29;100928.72;5022796;28;20026;-63
2022/11/28 08:44:04;;;;;;;2.20;1.40;;;;;;;18.29;48.61;100931.25;5025314;28;20034;-61
2022/11/28 08:46:29;;;;;;;2.80;1.42;;;;;;;18.30;48.61;100926.69;5026321;28;20045;-61
2022/11/28 08:48:54;;;;;;;2.00;1.45;;;;;;;18.29;48.45;100925.84;5026660;28;20049;-61
2022/11/28 08:51:22;;;;;;;1.65;1.35;;;;;;;18.30;48.29;100924.84;5026077;28;20037;-62
2022/11/28 08:53:48;;;;;;;3.38;1.55;;;;;;;18.29;48.46;100931.25;5026326;28;20034;-62
2022/11/28 08:56:13;;;;;;;3.08;1.40;;;;;;;18.29;48.56;100925.03;5026092;28;20065;-62
2022/11/28 08:58:38;;;;;;;2.63;1.50;;;;;;;18.32;48.34;100938.16;5026491;28;20100;-61
2022/11/28 09:01:22;;;;;;;2.80;1.38;;;;;;;18.18;48.43;100913.56;5026150;28;20088;-60
2022/11/28 09:03:48;;;;;;;1.88;1.10;;;;;;;18.26;48.50;100922.66;5016009;28;20085;-62
2022/11/28 09:06:15;;;;;;;1.30;1.20;;;;;;;18.34;48.71;100936.13;5019204;28;20057;-61
2022/11/28 09:08:40;;;;;;;2.63;1.10;;;;;;;18.35;48.70;100933.28;5020911;28;20085;-61
2022/11/28 09:11:08;;;;;;;1.77;1.30;;;;;;;18.37;48.77;100950.13;5021159;28;20053;-60
2022/11/28 09:13:34;;;;;;;3.00;1.35;;;;;;;18.39;48.92;100950.81;5021058;28;20042;-61
2022/11/28 09:15:59;;;;;;;1.60;1.20;;;;;;;18.41;48.71;100942.56;5021206;28;20033;-61
2022/11/28 09:18:25;;;;;;;2.03;1.10;;;;;;;18.42;49.00;100955.84;5025013;28;20088;-62
2022/11/28 09:20:59;;;;;;;1.42;1.13;;;;;;;18.43;48.92;100952.13;5021042;28;20030;-61
2022/11/28 09:23:24;;;;;;;1.77;1.33;;;;;;;18.38;48.81;100942.88;5019901;28;20034;-61
2022/11/28 09:25:50;;;;;;;2.58;1.20;;;;;;;18.47;48.83;100958.03;5017460;28;20066;-62
2022/11/28 09:28:15;;;;;;;1.88;0.95;;;;;;;18.48;48.29;100965.13;5017089;28;20030;-62
2022/11/28 09:30:40;;;;;;;1.25;1.10;;;;;;;18.47;48.60;100958.88;5025015;28;20078;-62
2022/11/28 09:33:05;;;;;;;3.47;1.10;;;;;;;18.49;48.56;100958.72;5023843;28;20020;-63
2022/11/28 09:35:31;;;;;;;1.65;1.00;;;;;;;18.40;48.85;100944.41;5020630;28;20558;-63
2022/11/28 09:37:56;;;;;;;1.25;1.15;;;;;;;18.50;49.02;100955.03;5019972;28;20030;-65
2022/11/28 09:40:31;;;;;;;1.85;1.15;;;;;;;18.51;48.96;100962.09;5017975;28;20034;-62
2022/11/28 09:42:58;;;;;;;2.55;1.27;;;;;;;18.54;48.36;100961.75;5019944;28;20030;-62
2022/11/28 09:45:23;;;;;;;2.30;0.90;;;;;;;18.55;48.51;100957.22;5019022;28;20030;-61
2022/11/28 09:47:51;;;;;;;2.42;0.90;;;;;;;18.54;48.80;100958.22;5018203;28;20387;-62
2022/11/28 09:50:20;;;;;;;1.23;1.00;;;;;;;18.56;48.55;100950.81;5012698;28;20026;-61
2022/11/28 09:52:59;;;;;;;1.30;0.93;;;;;;;18.57;48.67;100964.13;5011012;28;20060;-62
2022/11/28 09:55:38;;;;;;;1.33;1.10;;;;;;;18.56;48.75;100962.44;5007566;28;20052;-64
2022/11/28 09:58:18;;;;;;;3.63;1.20;;;;;;;18.57;48.72;100960.59;4997753;28;20092;-61
2022/11/28 10:00:47;;;;;;;1.20;1.10;;;;;;;18.58;48.35;100963.13;5018078;28;20036;-62
2022/11/28 10:03:15;;;;;;;2.03;1.40;;;;;;;18.59;48.69;100959.41;5007887;28;20094;-62
2022/11/28 10:05:47;;;;;;;1.27;1.00;;;;;;;18.59;48.62;100953.19;5023189;28;20026;-58
2022/11/28 10:08:48;;;;;;;1.33;1.15;;;;;;;18.58;48.75;100957.72;5001241;28;20503;-62
2022/11/28 10:11:43;;;;;;;2.47;0.82;;;;;;;18.57;48.57;100953.38;4963286;29;20042;-62
2022/11/28 10:14:34;;;;;;;1.83;1.10;;;;;;;18.57;48.72;100958.75;4943027;29;20030;-62
2022/11/28 10:17:37;;;;;;;1.38;1.15;;;;;;;18.58;48.55;100962.28;4941644;29;20039;-61
2022/11/28 10:20:11;;;;;;;1.33;1.10;;;;;;;18.56;48.63;100961.59;4957975;29;20090;-62
2022/11/28 10:22:43;;;;;;;2.72;1.42;;;;;;;18.54;48.76;100967.16;4955158;29;20452;-62
2022/11/28 10:25:17;;;;;;;1.50;1.17;;;;;;;18.53;48.72;100957.41;4948049;29;20088;-62
2022/11/28 10:27:43;;;;;;;4.88;1.67;;;;;;;18.53;48.94;100967.31;4963104;29;20146;-62
2022/11/28 10:30:22;;;;;;;1.58;1.27;;;;;;;18.51;48.87;100959.38;4964053;29;20092;-62
2022/11/28 10:32:54;;;;;;;3.45;1.30;;;;;;;18.54;48.79;100963.63;4955304;29;20043;-62
2022/11/28 10:35:22;;;;;;;3.72;1.50;;;;;;;18.54;49.08;100967.16;4943740;29;20985;-62
2022/11/28 10:37:48;;;;;;;6.28;1.30;;;;;;;18.56;48.90;100977.75;4942141;29;20053;-62
2022/11/28 10:40:22;;;;;;;3.17;1.35;;;;;;;18.55;49.03;100968.81;4937632;29;20051;-61
2022/11/28 10:43:23;;;;;;;2.72;1.48;;;;;;;18.56;49.18;100973.19;4957041;29;20082;-61
2022/11/28 10:46:02;;;;;;;2.20;1.48;;;;;;;18.57;49.28;100972.22;4946116;29;20055;-62
2022/11/28 10:48:50;;;;;;;2.38;1.50;;;;;;;18.58;49.20;100967.66;5011016;28;20050;-62
2022/11/28 10:51:51;;;;;;;1.95;1.30;;;;;;;18.60;49.24;100971.03;5000035;28;20050;-59
2022/11/28 10:54:16;;;;;;;1.92;1.23;;;;;;;18.60;49.58;100965.63;4905225;29;20036;-59
2022/11/28 10:57:16;;;;;;;3.00;1.50;;;;;;;18.60;49.39;100971.03;4921208;29;20494;-54
2022/11/28 10:59:53;;;;;;;1.63;1.20;;;;;;;18.61;49.70;100967.34;4922244;29;20028;-59
2022/11/28 11:02:35;;;;;;;3.35;1.65;;;;;;;18.61;49.78;100965.50;4920716;29;20040;-57
2022/11/28 11:05:01;;;;;;;3.83;1.30;;;;;;;18.56;49.43;100951.66;4904943;29;20096;-60
2022/11/28 11:07:30;;;;;;;2.47;1.50;;;;;;;18.64;49.39;100965.13;4925883;29;20232;-60
2022/11/28 11:10:18;;;;;;;1.90;1.08;;;;;;;18.65;49.44;100958.78;4922119;29;20043;-61
2022/11/28 11:12:44;;;;;;;1.52;1.10;;;;;;;18.66;49.18;100949.66;4919485;29;20034;-60
2022/11/28 11:15:30;;;;;;;2.33;1.38;;;;;;;18.65;49.21;100950.69;4920739;29;20040;-58
2022/11/28 11:17:56;;;;;;;2.40;1.35;;;;;;;18.63;49.38;100950.00;4918940;29;20509;-59
2022/11/28 11:20:29;;;;;;;2.20;1.20;;;;;;;18.65;49.23;100948.00;4921263;29;20039;-59
2022/11/28 11:22:56;;;;;;;2.97;1.00;;;;;;;18.66;49.18;100956.91;4921728;29;20048;-60
2022/11/28 11:25:24;;;;;;;2.50;1.25;;;;;;;18.67;49.15;100955.91;4925266;29;20653;-60
2022/11/28 11:27:51;;;;;;;1.92;1.30;;;;;;;18.66;49.19;100951.53;4946048;28;20041;-61
2022/11/28 11:30:34;;;;;;;2.15;1.45;;;;;;;18.66;49.43;100949.66;4999404;28;20105;-60
2022/11/28 11:33:01;;;;;;;2.15;1.38;;;;;;;18.68;49.67;100952.19;5001214;28;20037;-59
2022/11/28 11:35:35;;;;;;;2.25;1.40;;;;;;;18.68;49.59;100944.09;5017792;28;20034;-61
2022/11/28 11:38:16;;;;;;;1.23;1.13;;;;;;;18.65;49.35;100942.59;4998039;28;20140;-60